Time;durP1;ratioP1;P1;durP2;ratioP2;P2;SDS_P1;SDS_P2;PMS_P1;PMS_P2;Temp;Humidity;BMP_temperature;BMP_pressure;BME280_temperature;BME280_humidity;BME280_pressure;Samples;Min_cycle;Max_cycle;Signal;HPM_P1;HPM_P2
2022/12/26 00:01:55;;;;;;;3.75;2.00;;;8.40;99.90;;;;;;6275641;22;20003;-81
2022/12/26 00:04:22;;;;;;;3.60;2.13;;;8.40;99.90;;;;;;6249919;22;20021;-81
2022/12/26 00:06:47;;;;;;;4.07;2.45;;;8.40;99.90;;;;;;6250261;22;20004;-81
2022/12/26 00:09:13;;;;;;;3.72;1.90;;;8.40;99.90;;;;;;6275769;22;20086;-81
2022/12/26 00:11:39;;;;;;;6.70;4.18;;;8.40;99.90;;;;;;6274778;22;20313;-81
2022/12/26 00:14:08;;;;;;;6.43;3.28;;;8.50;99.90;;;;;;6301314;22;20019;-81
2022/12/26 00:16:34;;;;;;;5.05;3.15;;;8.50;99.90;;;;;;6302973;22;20427;-81
2022/12/26 00:19:00;;;;;;;5.35;2.97;;;8.40;99.90;;;;;;6249387;22;20086;-81
2022/12/26 00:21:27;;;;;;;5.13;3.00;;;8.50;99.90;;;;;;6275832;22;20045;-81
2022/12/26 00:23:55;;;;;;;5.38;3.22;;;8.50;99.90;;;;;;6249142;22;20021;-81
2022/12/26 00:26:23;;;;;;;7.88;4.97;;;8.50;99.90;;;;;;6251734;22;20448;-80
2022/12/26 00:28:49;;;;;;;7.25;4.40;;;8.60;99.90;;;;;;6278840;22;20381;-81
2022/12/26 00:31:21;;;;;;;7.13;4.53;;;8.60;99.90;;;;;;6278730;22;20011;-80
2022/12/26 00:33:47;;;;;;;10.13;6.10;;;8.60;99.90;;;;;;6278668;22;20015;-80
2022/12/26 00:36:16;;;;;;;10.73;6.70;;;8.70;99.90;;;;;;6279270;22;20064;-81
2022/12/26 00:38:43;;;;;;;8.13;5.03;;;8.70;99.90;;;;;;6252472;22;20015;-80
2022/12/26 00:41:10;;;;;;;9.25;5.10;;;8.70;99.90;;;;;;6278654;22;20011;-80
2022/12/26 00:43:36;;;;;;;6.90;4.43;;;8.80;99.90;;;;;;6306128;22;20039;-80
2022/12/26 00:46:02;;;;;;;8.55;4.40;;;8.70;99.90;;;;;;6304418;22;20486;-80
2022/12/26 00:48:29;;;;;;;7.55;4.45;;;8.80;99.90;;;;;;6278980;22;20018;-80
2022/12/26 00:50:55;;;;;;;7.68;4.10;;;8.80;99.90;;;;;;6305485;22;20028;-80
2022/12/26 00:53:21;;;;;;;10.00;5.03;;;8.80;99.90;;;;;;6277996;22;20018;-80
2022/12/26 00:55:48;;;;;;;11.88;6.30;;;8.80;99.90;;;;;;6278577;22;20014;-80
2022/12/26 00:58:14;;;;;;;9.20;5.53;;;8.90;99.90;;;;;;6278748;22;20014;-80
2022/12/26 01:00:40;;;;;;;8.88;5.20;;;8.90;99.90;;;;;;6252932;22;20003;-80
2022/12/26 01:03:06;;;;;;;10.07;6.00;;;8.90;99.90;;;;;;6279052;22;20390;-80
2022/12/26 01:05:32;;;;;;;6.72;3.75;;;8.90;99.90;;;;;;6305463;22;20045;-80
2022/12/26 01:07:58;;;;;;;9.15;4.78;;;8.90;99.90;;;;;;6278223;22;20007;-80
2022/12/26 01:10:24;;;;;;;10.10;5.25;;;8.90;99.90;;;;;;6304878;22;20003;-80
2022/12/26 01:12:50;;;;;;;8.55;5.00;;;8.90;99.90;;;;;;6278432;22;20018;-80
2022/12/26 01:15:16;;;;;;;10.63;5.85;;;8.90;99.90;;;;;;6305585;22;20018;-80
2022/12/26 01:17:42;;;;;;;11.75;6.40;;;8.90;99.90;;;;;;6304239;22;20332;-79
2022/12/26 01:20:08;;;;;;;18.13;10.77;;;8.90;99.90;;;;;;6304112;22;20387;-80
2022/12/26 01:22:35;;;;;;;19.15;11.20;;;9.00;99.90;;;;;;6305819;22;20082;-80
2022/12/26 01:25:01;;;;;;;25.55;14.75;;;9.00;99.90;;;;;;6305889;22;20015;-80
2022/12/26 01:27:26;;;;;;;24.75;13.88;;;9.00;99.90;;;;;;6306148;22;20019;-79
2022/12/26 01:29:53;;;;;;;21.15;12.95;;;9.00;99.90;;;;;;6305797;22;20325;-80
2022/12/26 01:32:18;;;;;;;25.13;15.15;;;9.00;99.90;;;;;;6278767;22;20049;-79
2022/12/26 01:34:44;;;;;;;18.58;11.38;;;9.00;99.90;;;;;;6278700;22;20011;-80
2022/12/26 01:37:12;;;;;;;25.60;14.48;;;9.00;99.90;;;;;;6277323;22;20015;-80
2022/12/26 01:39:38;;;;;;;18.02;11.10;;;9.00;99.90;;;;;;6251220;22;20007;-80
2022/12/26 01:42:13;;;;;;;29.05;16.73;;;9.00;99.90;;;;;;6276687;22;20025;-79
2022/12/26 01:44:59;;;;;;;27.90;16.70;;;9.00;99.90;;;;;;6251102;22;20080;-80
2022/12/26 01:47:48;;;;;;;24.08;14.68;;;9.00;99.90;;;;;;6277067;22;20080;-80
2022/12/26 01:50:39;;;;;;;20.75;12.13;;;9.10;99.90;;;;;;6276791;22;20018;-80
2022/12/26 01:53:29;;;;;;;18.73;11.43;;;8.90;99.90;;;;;;6276528;22;20003;-80
2022/12/26 01:56:02;;;;;;;16.77;10.13;;;8.80;99.90;;;;;;6275822;22;20015;-80
2022/12/26 01:58:33;;;;;;;16.65;9.55;;;8.80;99.90;;;;;;6276726;22;20011;-80
2022/12/26 02:01:01;;;;;;;15.55;9.00;;;8.80;99.90;;;;;;6277027;22;20011;-80
2022/12/26 02:06:13;;;;;;;12.18;7.20;;;8.80;99.90;;;;;;6276041;22;20377;-80
2022/12/26 02:08:39;;;;;;;12.50;7.30;;;8.80;99.90;;;;;;6276606;22;20007;-80
2022/12/26 02:11:09;;;;;;;12.10;6.88;;;8.80;99.90;;;;;;6276911;22;20007;-80
2022/12/26 02:13:37;;;;;;;13.15;7.28;;;8.80;99.90;;;;;;6276832;22;20072;-80
2022/12/26 02:16:05;;;;;;;11.23;6.03;;;8.80;99.90;;;;;;6275886;22;20504;-81
2022/12/26 02:18:31;;;;;;;13.73;8.90;;;8.80;99.90;;;;;;6276309;22;20008;-80
2022/12/26 02:21:18;;;;;;;15.18;8.93;;;8.80;99.90;;;;;;6275709;22;20336;-80
2022/12/26 02:23:53;;;;;;;17.05;10.30;;;8.80;99.90;;;;;;6302284;22;20025;-80
2022/12/26 02:26:52;;;;;;;18.77;12.05;;;8.80;99.90;;;;;;6277054;22;20428;-79
2022/12/26 02:29:39;;;;;;;18.15;10.70;;;8.80;99.90;;;;;;6304314;22;20095;-79
2022/12/26 02:32:26;;;;;;;16.70;10.80;;;8.80;99.90;;;;;;6250961;22;20085;-79
2022/12/26 02:34:58;;;;;;;17.90;11.48;;;8.80;99.90;;;;;;6250058;22;20007;-80
2022/12/26 02:37:43;;;;;;;20.75;13.20;;;8.80;99.90;;;;;;6276232;22;20366;-81
2022/12/26 02:40:09;;;;;;;19.02;12.68;;;8.80;99.90;;;;;;6276233;22;20014;-80
2022/12/26 02:42:58;;;;;;;21.02;13.70;;;8.90;99.90;;;;;;6276243;22;19999;-81
2022/12/26 02:48:41;;;;;;;20.55;12.70;;;8.80;99.90;;;;;;6303716;22;20003;-80
2022/12/26 03:14:50;;;;;;;21.08;14.43;;;8.70;99.90;;;;;;6182662;23;20013;-80
2022/12/26 03:17:26;;;;;;;22.35;14.65;;;8.70;99.90;;;;;;6183377;23;20012;-81
2022/12/26 03:20:02;;;;;;;21.58;12.63;;;8.60;99.90;;;;;;6182514;23;20015;-80
2022/12/26 03:22:36;;;;;;;17.45;11.60;;;8.60;99.90;;;;;;6208315;23;20092;-80
2022/12/26 03:27:52;;;;;;;20.20;13.77;;;8.60;99.90;;;;;;6182565;23;20057;-80
2022/12/26 03:33:02;;;;;;;26.10;17.40;;;8.50;99.90;;;;;;6215096;22;20008;-80
2022/12/26 03:35:31;;;;;;;25.67;17.55;;;8.50;99.90;;;;;;6275554;22;20368;-80
2022/12/26 03:38:12;;;;;;;25.63;16.05;;;8.50;99.90;;;;;;6303374;22;20293;-80
2022/12/26 04:19:41;;;;;;;34.00;23.10;;;8.70;99.90;;;;;;6238436;23;20008;-80
2022/12/26 04:45:27;;;;;;;19.75;14.55;;;8.70;99.90;;;;;;6182577;23;20083;-80
2022/12/26 04:50:51;;;;;;;21.45;15.25;;;8.60;99.90;;;;;;6208594;23;20020;-79
2022/12/26 04:53:18;;;;;;;23.10;16.70;;;8.60;99.90;;;;;;6207989;23;20013;-79
2022/12/26 04:55:44;;;;;;;24.48;17.42;;;8.70;99.90;;;;;;6178195;23;20389;-80
2022/12/26 04:58:09;;;;;;;22.17;15.48;;;8.70;99.90;;;;;;6177680;23;20096;-81
2022/12/26 05:00:35;;;;;;;18.45;14.88;;;8.60;99.90;;;;;;6152480;23;20009;-80
2022/12/26 05:11:25;;;;;;;15.10;11.65;;;8.50;99.90;;;;;;6271753;22;20015;-80
2022/12/26 05:13:55;;;;;;;14.00;11.23;;;8.40;99.90;;;;;;6220106;22;20016;-79
2022/12/26 05:30:22;;;;;;;10.85;8.77;;;8.40;99.90;;;;;;6273022;22;20008;-80
2022/12/26 05:35:34;;;;;;;12.07;9.45;;;8.30;99.90;;;;;;6273721;22;20000;-80
2022/12/26 05:38:00;;;;;;;11.57;8.52;;;8.40;99.90;;;;;;6220853;22;20014;-80
2022/12/26 05:40:26;;;;;;;11.27;8.38;;;8.40;99.90;;;;;;6246487;22;20012;-80
2022/12/26 05:42:51;;;;;;;9.38;7.68;;;8.40;99.90;;;;;;6217555;22;20451;-80
2022/12/26 05:45:17;;;;;;;11.18;7.90;;;8.30;99.90;;;;;;6220914;22;20069;-80
2022/12/26 05:47:43;;;;;;;10.02;8.45;;;8.30;99.90;;;;;;6246060;22;20551;-80
2022/12/26 05:50:09;;;;;;;8.82;6.40;;;8.20;99.90;;;;;;6245962;22;20028;-79
2022/12/26 05:52:34;;;;;;;6.25;5.50;;;8.20;99.90;;;;;;6220820;22;20451;-80
2022/12/26 05:55:00;;;;;;;6.95;5.43;;;8.20;99.90;;;;;;6261423;22;20016;-80
2022/12/26 05:57:26;;;;;;;9.48;5.63;;;8.20;99.90;;;;;;6272324;22;20007;-81
2022/12/26 05:59:51;;;;;;;5.82;4.82;;;8.10;99.90;;;;;;6245442;22;20004;-80
2022/12/26 06:02:17;;;;;;;6.30;4.50;;;8.20;99.90;;;;;;6245893;22;20011;-80
2022/12/26 06:04:43;;;;;;;8.13;5.82;;;8.20;99.90;;;;;;6270482;22;20015;-80
2022/12/26 06:07:08;;;;;;;4.65;3.35;;;8.20;99.90;;;;;;6245640;22;20007;-80
2022/12/26 06:09:34;;;;;;;4.10;3.42;;;8.20;99.90;;;;;;6220534;22;20451;-80
2022/12/26 06:12:00;;;;;;;4.70;3.38;;;8.10;99.90;;;;;;6269517;22;20333;-79
2022/12/26 06:14:25;;;;;;;5.13;3.55;;;8.10;99.90;;;;;;6271327;22;20512;-81
2022/12/26 06:16:51;;;;;;;3.47;2.35;;;8.10;99.90;;;;;;6244783;22;20027;-80
2022/12/26 06:19:17;;;;;;;4.18;2.88;;;8.00;99.90;;;;;;6271045;22;20014;-80
2022/12/26 06:21:42;;;;;;;3.53;1.88;;;8.00;99.90;;;;;;6220056;22;20372;-80
2022/12/26 06:24:08;;;;;;;4.15;2.40;;;8.00;99.90;;;;;;6272389;22;20318;-80
2022/12/26 06:26:34;;;;;;;4.90;2.35;;;8.00;99.90;;;;;;6270579;22;20022;-80
2022/12/26 06:28:59;;;;;;;3.40;1.95;;;8.00;99.90;;;;;;6270727;22;20025;-80
2022/12/26 06:31:25;;;;;;;3.78;2.22;;;7.90;99.90;;;;;;6245925;22;20014;-80
2022/12/26 06:33:54;;;;;;;4.13;2.22;;;7.90;99.90;;;;;;6272379;22;20007;-80
2022/12/26 06:36:22;;;;;;;6.28;2.85;;;7.90;99.90;;;;;;6272895;22;20083;-80
2022/12/26 06:38:49;;;;;;;3.35;2.03;;;7.80;99.90;;;;;;6245200;22;20094;-80
2022/12/26 06:41:16;;;;;;;4.85;2.15;;;7.80;99.90;;;;;;6272051;22;20185;-80
2022/12/26 06:43:42;;;;;;;2.80;1.75;;;7.80;99.90;;;;;;6270626;22;20360;-80
2022/12/26 06:46:12;;;;;;;4.03;2.25;;;7.80;99.90;;;;;;6272548;22;20006;-80
2022/12/26 06:48:40;;;;;;;2.55;1.25;;;7.80;99.90;;;;;;6272496;22;20003;-80
2022/12/26 06:51:10;;;;;;;2.92;1.98;;;7.70;99.90;;;;;;6270929;22;20007;-81
2022/12/26 06:53:36;;;;;;;3.53;1.67;;;7.70;99.90;;;;;;6270447;22;20026;-80
2022/12/26 06:56:05;;;;;;;9.02;2.65;;;7.70;99.90;;;;;;6243882;22;20254;-80
2022/12/26 06:58:31;;;;;;;4.07;2.38;;;7.80;99.90;;;;;;6219840;22;20015;-80
2022/12/26 07:01:03;;;;;;;4.10;2.47;;;7.90;99.90;;;;;;6271845;22;20018;-80
2022/12/26 07:03:29;;;;;;;4.82;3.08;;;7.90;99.90;;;;;;6271611;22;20003;-79
2022/12/26 07:05:55;;;;;;;3.97;2.45;;;8.00;99.90;;;;;;6271836;22;20019;-80
2022/12/26 07:08:20;;;;;;;5.35;3.22;;;8.10;99.90;;;;;;6272383;22;20340;-79
2022/12/26 07:10:46;;;;;;;4.40;3.00;;;8.10;99.90;;;;;;6243913;22;20425;-80
2022/12/26 07:13:12;;;;;;;3.70;2.33;;;8.20;99.90;;;;;;6244915;22;20384;-80
2022/12/26 07:15:37;;;;;;;4.10;2.75;;;8.20;99.90;;;;;;6271818;22;20022;-80
2022/12/26 07:18:03;;;;;;;5.05;2.53;;;8.20;99.90;;;;;;6270519;22;20033;-78
2022/12/26 07:20:29;;;;;;;4.00;2.90;;;8.10;99.90;;;;;;6272185;22;20008;-80
2022/12/26 07:22:54;;;;;;;5.30;3.40;;;8.10;99.90;;;;;;6244543;22;20544;-79
2022/12/26 07:25:20;;;;;;;4.10;2.78;;;8.10;99.90;;;;;;6271038;22;20109;-80
2022/12/26 07:27:46;;;;;;;5.43;3.30;;;8.10;99.90;;;;;;6271877;22;20432;-80
2022/12/26 07:30:11;;;;;;;7.53;4.30;;;8.00;99.90;;;;;;6219959;22;20008;-80
2022/12/26 07:32:37;;;;;;;6.53;4.68;;;8.10;99.90;;;;;;6244906;22;20078;-80
2022/12/26 07:35:03;;;;;;;7.22;4.93;;;8.10;99.90;;;;;;6271409;22;20031;-80
2022/12/26 07:37:29;;;;;;;8.07;5.47;;;8.10;99.90;;;;;;6219531;22;20062;-80
2022/12/26 07:39:54;;;;;;;7.70;5.15;;;8.10;99.90;;;;;;6219032;22;20083;-80
2022/12/26 07:42:22;;;;;;;6.35;5.22;;;8.10;99.90;;;;;;6245307;22;20008;-80
2022/12/26 07:44:48;;;;;;;7.60;5.53;;;8.10;99.90;;;;;;6193519;22;20031;-80
2022/12/26 07:47:15;;;;;;;5.90;4.88;;;8.10;99.90;;;;;;6258583;22;20008;-80
2022/12/26 07:49:41;;;;;;;8.10;6.07;;;8.10;99.90;;;;;;6264801;22;20559;-80
2022/12/26 07:52:06;;;;;;;6.95;4.90;;;8.10;99.90;;;;;;6217932;22;20371;-81
2022/12/26 07:54:32;;;;;;;5.35;4.13;;;8.10;99.90;;;;;;6259145;22;20070;-81
2022/12/26 07:56:58;;;;;;;5.43;4.15;;;8.10;99.90;;;;;;6247959;22;20415;-81
2022/12/26 07:59:24;;;;;;;6.47;4.90;;;8.10;99.90;;;;;;6275263;22;20011;-80
2022/12/26 08:01:49;;;;;;;7.63;5.15;;;8.10;99.90;;;;;;6274700;22;20378;-80
2022/12/26 08:04:15;;;;;;;7.25;4.68;;;8.20;99.90;;;;;;6300430;22;20019;-80
2022/12/26 08:06:41;;;;;;;5.75;4.70;;;8.10;99.90;;;;;;6273960;22;20446;-81
2022/12/26 08:09:10;;;;;;;6.78;4.28;;;8.20;99.90;;;;;;6274310;22;20133;-81
2022/12/26 08:11:36;;;;;;;4.97;2.70;;;8.10;99.90;;;;;;6248940;22;20518;-81
2022/12/26 08:14:02;;;;;;;4.05;2.60;;;8.10;99.90;;;;;;6274219;22;20003;-81
2022/12/26 08:16:30;;;;;;;4.72;4.07;;;8.10;99.90;;;;;;6274798;22;20016;-81
2022/12/26 08:18:55;;;;;;;4.57;3.35;;;8.20;99.90;;;;;;6301787;22;20011;-81
2022/12/26 08:21:21;;;;;;;6.40;3.88;;;8.20;99.90;;;;;;6274965;22;19995;-81
2022/12/26 08:23:47;;;;;;;4.45;2.67;;;8.20;99.90;;;;;;6273278;22;20035;-81
2022/12/26 08:26:19;;;;;;;4.57;2.75;;;8.20;99.90;;;;;;6301659;22;20007;-80
2022/12/26 08:28:45;;;;;;;2.67;2.13;;;8.30;99.90;;;;;;6274060;22;20053;-80
2022/12/26 08:31:12;;;;;;;3.90;2.38;;;8.20;99.90;;;;;;6274540;22;20007;-80
2022/12/26 08:33:38;;;;;;;2.60;1.83;;;8.20;99.90;;;;;;6249061;22;20003;-80
2022/12/26 08:36:05;;;;;;;3.40;1.63;;;8.20;99.90;;;;;;6274461;22;20081;-80
2022/12/26 08:38:31;;;;;;;3.05;2.03;;;8.20;99.90;;;;;;6246645;22;20078;-80
2022/12/26 08:40:57;;;;;;;3.22;2.25;;;8.20;99.90;;;;;;6274003;22;20038;-80
2022/12/26 08:43:23;;;;;;;4.30;1.77;;;8.30;99.90;;;;;;6300321;22;20015;-80
2022/12/26 08:45:57;;;;;;;4.57;1.85;;;8.40;99.90;;;;;;6274007;22;20014;-81
2022/12/26 08:48:23;;;;;;;5.03;2.08;;;8.40;99.90;;;;;;6274582;22;20030;-80
2022/12/26 08:51:01;;;;;;;6.32;2.65;;;8.50;99.90;;;;;;6275295;22;20011;-80
2022/12/26 08:53:28;;;;;;;3.17;2.10;;;8.60;99.90;;;;;;6250542;22;20026;-80
2022/12/26 08:55:54;;;;;;;3.40;2.15;;;8.70;99.90;;;;;;6303907;22;20117;-80
2022/12/26 08:58:20;;;;;;;3.75;2.17;;;8.70;99.90;;;;;;6251434;22;20011;-81
2022/12/26 09:00:47;;;;;;;4.25;1.52;;;8.70;99.90;;;;;;6304022;22;20002;-80
2022/12/26 09:03:14;;;;;;;3.55;2.40;;;8.70;99.90;;;;;;6276784;22;20039;-80
2022/12/26 09:05:39;;;;;;;2.50;1.30;;;8.80;99.90;;;;;;6250984;22;20039;-79
2022/12/26 09:08:05;;;;;;;2.15;1.00;;;8.80;99.90;;;;;;6301959;22;20014;-80
2022/12/26 09:10:32;;;;;;;4.45;1.25;;;8.80;99.90;;;;;;6303942;22;20011;-80
2022/12/26 09:12:58;;;;;;;4.43;1.58;;;8.90;99.90;;;;;;6276470;22;20010;-80
2022/12/26 09:15:23;;;;;;;4.55;1.40;;;9.00;99.90;;;;;;6303881;22;20003;-80
2022/12/26 09:17:49;;;;;;;4.63;1.40;;;9.10;99.90;;;;;;6275956;22;20083;-80
2022/12/26 09:20:14;;;;;;;4.00;1.40;;;9.20;99.90;;;;;;6276881;22;20555;-81
2022/12/26 09:22:49;;;;;;;4.88;1.38;;;9.20;99.90;;;;;;6275896;22;20063;-81
2022/12/26 09:25:18;;;;;;;3.13;1.05;;;9.30;99.90;;;;;;6302728;22;20459;-80
2022/12/26 09:27:44;;;;;;;5.18;1.30;;;9.40;99.90;;;;;;6303960;22;20000;-80
2022/12/26 09:30:10;;;;;;;2.35;0.73;;;9.50;99.90;;;;;;6276480;22;20069;-80
2022/12/26 09:32:36;;;;;;;2.95;1.00;;;9.50;99.90;;;;;;6251072;22;20014;-81
2022/12/26 09:35:03;;;;;;;2.13;0.55;;;9.50;99.90;;;;;;6301412;22;20018;-81
2022/12/26 09:37:28;;;;;;;1.50;0.80;;;9.60;99.90;;;;;;6303979;22;20319;-80
2022/12/26 09:39:54;;;;;;;3.83;1.00;;;9.60;99.90;;;;;;6301976;22;20070;-81
2022/12/26 09:43:01;;;;;;;3.05;0.70;;;9.60;99.90;;;;;;6302226;22;20035;-81
2022/12/26 09:45:50;;;;;;;2.72;0.85;;;9.70;99.90;;;;;;6267253;22;20029;-80
2022/12/26 09:48:44;;;;;;;3.60;1.88;;;9.60;99.90;;;;;;6274234;22;20003;-81
2022/12/26 09:51:10;;;;;;;3.95;1.08;;;9.60;99.90;;;;;;6301478;22;20061;-80
2022/12/26 09:53:42;;;;;;;3.45;0.98;;;9.70;99.90;;;;;;6274251;22;20007;-81
2022/12/26 09:56:15;;;;;;;3.88;0.70;;;9.80;99.90;;;;;;6275150;22;20093;-80
2022/12/26 09:58:49;;;;;;;2.15;0.70;;;9.80;99.90;;;;;;6274814;22;20410;-80
2022/12/26 10:01:16;;;;;;;2.50;0.70;;;9.70;99.90;;;;;;6276185;22;20014;-80
2022/12/26 10:03:47;;;;;;;4.88;1.20;;;9.80;99.90;;;;;;6303543;22;20494;-81
2022/12/26 10:06:20;;;;;;;7.28;1.30;;;9.90;99.90;;;;;;6276136;22;20028;-80
2022/12/26 10:08:56;;;;;;;3.75;0.90;;;9.90;99.90;;;;;;6303814;22;20053;-81
2022/12/26 10:11:59;;;;;;;2.22;1.00;;;9.90;99.90;;;;;;6303877;22;20049;-81
2022/12/26 10:14:34;;;;;;;7.50;1.38;;;9.80;99.90;;;;;;6276309;22;20007;-81
2022/12/26 10:17:27;;;;;;;2.90;1.00;;;9.70;99.90;;;;;;6303482;22;19999;-81
2022/12/26 10:20:05;;;;;;;3.00;0.70;;;9.70;99.90;;;;;;6275114;22;20014;-80
2022/12/26 10:22:49;;;;;;;6.15;1.45;;;9.60;99.90;;;;;;6276082;22;20030;-80
2022/12/26 10:25:50;;;;;;;4.00;0.80;;;9.60;99.90;;;;;;6250258;22;20151;-80
2022/12/26 10:28:55;;;;;;;4.30;1.52;;;9.60;99.90;;;;;;6250890;22;20027;-81
2022/12/26 10:31:37;;;;;;;5.43;1.23;;;9.60;99.90;;;;;;6244403;22;20015;-80
2022/12/26 10:34:21;;;;;;;2.45;1.05;;;9.50;99.90;;;;;;6275139;22;20003;-81
2022/12/26 10:36:53;;;;;;;3.30;1.40;;;9.40;99.90;;;;;;6303153;22;20432;-80
2022/12/26 10:39:27;;;;;;;6.10;1.30;;;9.40;99.90;;;;;;6275630;22;20004;-78
2022/12/26 10:41:58;;;;;;;1.88;0.85;;;9.10;99.90;;;;;;6275302;22;20274;-78
2022/12/26 10:44:24;;;;;;;4.43;0.40;;;8.90;99.90;;;;;;6302833;22;20075;-80
2022/12/26 10:47:20;;;;;;;5.82;0.68;;;8.90;99.90;;;;;;6302944;22;20004;-79
2022/12/26 10:49:47;;;;;;;5.60;0.70;;;9.00;99.90;;;;;;6272720;22;19999;-79
2022/12/26 10:52:15;;;;;;;3.58;0.80;;;9.00;99.90;;;;;;6273000;22;20023;-79
2022/12/26 10:54:41;;;;;;;5.35;0.90;;;9.00;99.90;;;;;;6272371;22;20026;-79
2022/12/26 10:57:07;;;;;;;7.10;0.90;;;9.00;99.90;;;;;;6273260;22;20019;-79
2022/12/26 10:59:51;;;;;;;4.57;0.90;;;9.00;99.90;;;;;;6248298;22;20301;-81
2022/12/26 11:02:25;;;;;;;5.18;0.95;;;9.10;99.90;;;;;;6273046;22;20011;-79
2022/12/26 11:05:07;;;;;;;8.50;0.70;;;9.00;99.90;;;;;;6273566;22;20328;-79
2022/12/26 11:07:36;;;;;;;8.45;0.90;;;9.00;99.90;;;;;;6248237;22;20345;-80
2022/12/26 11:10:05;;;;;;;5.32;0.80;;;9.00;99.90;;;;;;6247438;22;20011;-79
2022/12/26 11:12:53;;;;;;;5.82;1.00;;;9.00;99.90;;;;;;6300406;22;20026;-79
2022/12/26 11:15:36;;;;;;;5.80;0.95;;;8.90;99.90;;;;;;6273527;22;20324;-79
2022/12/26 11:18:21;;;;;;;10.32;0.90;;;8.90;99.90;;;;;;6247234;22;20043;-78
2022/12/26 11:20:48;;;;;;;15.52;0.85;;;8.60;99.90;;;;;;6273535;22;20022;-79
2022/12/26 11:23:30;;;;;;;9.07;0.52;;;8.50;99.90;;;;;;6274055;22;20145;-79
2022/12/26 11:25:58;;;;;;;8.45;0.40;;;8.20;99.90;;;;;;6273294;22;20377;-80
2022/12/26 11:28:25;;;;;;;15.68;0.85;;;8.10;99.90;;;;;;6247879;22;20420;-80
2022/12/26 11:30:52;;;;;;;10.05;0.88;;;8.00;99.90;;;;;;6300946;22;20367;-80
2022/12/26 11:33:31;;;;;;;8.35;0.70;;;8.00;99.90;;;;;;6301006;22;20053;-79
2022/12/26 11:36:14;;;;;;;6.78;0.50;;;7.90;99.90;;;;;;6300663;22;20383;-78
2022/12/26 11:38:47;;;;;;;7.82;0.57;;;7.80;99.90;;;;;;6298634;22;20061;-80
2022/12/26 11:41:38;;;;;;;8.55;0.40;;;7.80;99.90;;;;;;6247926;22;20399;-79
2022/12/26 11:44:10;;;;;;;11.82;0.73;;;7.70;99.90;;;;;;6273974;22;20019;-81
2022/12/26 11:46:39;;;;;;;11.77;1.05;;;7.60;99.90;;;;;;6301000;22;19999;-79
2022/12/26 11:49:06;;;;;;;10.60;0.73;;;7.60;99.90;;;;;;6299458;22;20009;-80
2022/12/26 11:51:44;;;;;;;10.82;0.40;;;7.50;99.90;;;;;;6273899;22;20011;-80
2022/12/26 11:54:34;;;;;;;12.55;0.60;;;7.50;99.90;;;;;;6301468;22;20018;-80
2022/12/26 11:57:15;;;;;;;12.70;0.50;;;7.50;99.90;;;;;;6273621;22;20105;-80
2022/12/26 11:59:41;;;;;;;6.90;0.88;;;7.50;99.90;;;;;;6300521;22;20110;-81
2022/12/26 12:02:30;;;;;;;5.85;0.40;;;7.60;99.90;;;;;;6274008;22;20015;-81
2022/12/26 12:05:05;;;;;;;11.43;0.60;;;7.60;99.90;;;;;;6301087;22;20027;-81
2022/12/26 12:07:53;;;;;;;15.63;0.77;;;7.50;99.90;;;;;;6247376;22;20444;-82
2022/12/26 12:10:56;;;;;;;8.90;0.50;;;7.40;99.90;;;;;;6274325;22;20068;-81
2022/12/26 12:13:57;;;;;;;6.30;0.50;;;7.40;99.90;;;;;;6273287;22;20039;-82
2022/12/26 12:16:41;;;;;;;6.43;0.50;;;7.40;99.90;;;;;;6273402;22;20487;-82
2022/12/26 12:19:28;;;;;;;5.28;0.30;;;7.40;99.90;;;;;;6298673;22;20412;-82
2022/12/26 12:22:12;;;;;;;9.40;0.40;;;7.40;99.90;;;;;;6273407;22;20027;-81
2022/12/26 12:24:52;;;;;;;2.95;0.20;;;7.40;99.90;;;;;;6273746;22;20128;-83
2022/12/26 12:27:28;;;;;;;;;;;7.40;99.90;;;;;;6301591;22;20455;-83
2022/12/26 12:30:11;;;;;;;4.57;0.30;;;7.40;99.90;;;;;;6300402;22;19913;-82
2022/12/26 12:32:44;;;;;;;7.55;0.40;;;7.40;99.90;;;;;;6248052;22;20121;-82
2022/12/26 12:35:37;;;;;;;6.70;0.30;;;7.40;99.90;;;;;;6248158;22;19999;-81
2022/12/26 12:38:29;;;;;;;3.30;0.22;;;7.50;99.90;;;;;;6300306;22;20019;-83
2022/12/26 12:41:20;;;;;;;5.53;0.20;;;7.50;99.90;;;;;;6245050;22;20372;-81
2022/12/26 12:44:13;;;;;;;5.47;0.20;;;7.50;99.90;;;;;;6272039;22;20011;-81
2022/12/26 12:46:54;;;;;;;4.88;0.30;;;7.50;99.90;;;;;;6300249;22;20090;-82
2022/12/26 12:49:40;;;;;;;5.45;0.20;;;7.60;99.90;;;;;;6273439;22;20400;-82
2022/12/26 12:52:24;;;;;;;3.90;0.50;;;7.60;99.90;;;;;;6300856;22;20403;-82
2022/12/26 12:54:53;;;;;;;7.60;0.30;;;7.50;99.90;;;;;;6250255;22;20428;-81
2022/12/26 12:57:29;;;;;;;2.47;0.10;;;7.50;99.90;;;;;;6282742;22;20114;-82
2022/12/26 13:00:14;;;;;;;3.55;0.15;;;7.50;99.90;;;;;;6227045;22;20109;-82
2022/12/26 13:02:48;;;;;;;2.42;0.32;;;7.50;99.90;;;;;;6235397;22;20029;-82
2022/12/26 13:05:38;;;;;;;7.32;0.20;;;7.50;99.90;;;;;;6235852;22;20448;-83
2022/12/26 13:08:19;;;;;;;6.55;0.30;;;7.50;99.90;;;;;;6260892;22;20098;-82
2022/12/26 13:10:52;;;;;;;4.93;0.60;;;7.40;99.90;;;;;;6234696;22;20011;-82
2022/12/26 13:13:21;;;;;;;3.45;0.20;;;7.40;99.90;;;;;;6260170;22;20030;-82
2022/12/26 13:15:50;;;;;;;3.03;0.30;;;7.30;99.90;;;;;;6234887;22;20459;-81
2022/12/26 13:18:27;;;;;;;5.93;0.20;;;7.30;99.90;;;;;;6234927;22;20007;-82
2022/12/26 13:21:14;;;;;;;7.05;0.30;;;7.30;99.90;;;;;;6260829;22;20470;-81
2022/12/26 13:26:45;;;;;;;5.60;0.30;;;7.30;99.90;;;;;;6259410;22;20017;-81
2022/12/26 13:29:30;;;;;;;5.57;0.40;;;7.30;99.90;;;;;;6260081;22;20051;-81
2022/12/26 13:32:01;;;;;;;6.68;0.20;;;7.30;99.90;;;;;;6260289;22;20007;-80
2022/12/26 13:34:26;;;;;;;;;;;7.20;99.90;;;;;;6261692;22;20014;-80
2022/12/26 13:36:55;;;;;;;4.10;0.30;;;7.10;99.90;;;;;;6258560;22;19906;-81
2022/12/26 13:39:26;;;;;;;8.88;0.50;;;7.10;99.90;;;;;;6260931;22;20035;-81
2022/12/26 13:45:36;;;;;;;5.10;0.40;;;7.00;99.90;;;;;;6289597;22;20107;-80
2022/12/26 13:48:26;;;;;;;6.18;0.30;;;6.90;99.90;;;;;;6286419;22;20344;-81
2022/12/26 13:51:03;;;;;;;1.67;0.30;;;6.90;99.90;;;;;;6289505;22;20015;-81
2022/12/26 13:53:36;;;;;;;5.38;0.20;;;6.80;99.90;;;;;;6261291;22;20037;-82
2022/12/26 13:56:17;;;;;;;5.05;0.40;;;6.80;99.90;;;;;;6253014;22;20015;-83
2022/12/26 13:59:06;;;;;;;5.57;0.38;;;6.80;99.90;;;;;;6261912;22;20010;-82
2022/12/26 14:01:45;;;;;;;5.33;0.30;;;6.80;99.90;;;;;;6237487;22;20034;-81
2022/12/26 14:04:23;;;;;;;6.63;0.30;;;6.70;99.90;;;;;;6251919;22;20023;-81
2022/12/26 14:07:24;;;;;;;5.63;0.30;;;6.80;99.90;;;;;;6260087;22;20269;-80
2022/12/26 14:10:39;;;;;;;4.25;0.30;;;6.70;99.90;;;;;;6231867;22;20019;-83
2022/12/26 14:13:33;;;;;;;2.92;0.20;;;6.70;99.90;;;;;;6135010;23;20013;-82
2022/12/26 14:16:16;;;;;;;1.83;0.20;;;6.60;99.90;;;;;;6139055;23;20943;-80
2022/12/26 14:19:31;;;;;;;3.55;0.30;;;6.50;99.90;;;;;;6164197;23;20120;-81
2022/12/26 14:22:12;;;;;;;8.55;0.30;;;6.50;99.90;;;;;;6113974;23;20056;-80
2022/12/26 14:25:00;;;;;;;4.53;0.20;;;6.50;99.90;;;;;;6163254;23;20021;-81
2022/12/26 14:27:56;;;;;;;3.00;0.20;;;6.40;99.90;;;;;;6098534;23;20476;-81
2022/12/26 14:30:36;;;;;;;5.63;0.20;;;6.40;99.90;;;;;;6162559;23;20320;-82
2022/12/26 14:33:20;;;;;;;3.58;0.30;;;6.20;99.90;;;;;;6114739;23;20377;-81
2022/12/26 14:36:32;;;;;;;3.67;0.20;;;6.20;99.90;;;;;;6114603;23;20497;-82
2022/12/26 14:39:29;;;;;;;3.17;0.28;;;6.10;99.90;;;;;;6133442;23;20545;-81
2022/12/26 14:44:56;;;;;;;5.88;0.65;;;6.00;99.90;;;;;;6108399;23;20566;-82
2022/12/26 14:47:46;;;;;;;3.75;0.45;;;6.10;99.90;;;;;;6084670;23;20013;-82
2022/12/26 14:50:30;;;;;;;;;;;6.00;99.90;;;;;;6207015;22;20038;-82
2022/12/26 14:53:28;;;;;;;2.17;0.28;;;5.90;99.90;;;;;;6228782;22;19914;-82
2022/12/26 14:56:28;;;;;;;2.10;0.28;;;5.90;99.90;;;;;;6193482;22;20019;-82
2022/12/26 14:59:26;;;;;;;2.75;0.30;;;5.80;99.90;;;;;;6227665;22;20549;-82
2022/12/26 15:02:29;;;;;;;3.20;0.30;;;5.80;99.90;;;;;;6200969;22;20047;-82
2022/12/26 15:05:18;;;;;;;3.75;0.22;;;5.80;99.90;;;;;;6208702;22;20039;-83
2022/12/26 15:08:20;;;;;;;4.00;0.30;;;5.70;99.90;;;;;;6196765;22;20217;-83
2022/12/26 15:11:12;;;;;;;2.38;0.30;;;5.60;99.90;;;;;;6216307;22;20014;-82
2022/12/26 15:13:53;;;;;;;4.57;0.30;;;5.70;99.90;;;;;;6229444;22;20010;-80
2022/12/26 15:16:28;;;;;;;4.40;0.65;;;5.80;99.90;;;;;;6255661;22;20406;-82
2022/12/26 15:19:24;;;;;;;3.92;0.20;;;5.90;99.90;;;;;;6258834;22;20397;-82
2022/12/26 15:21:53;;;;;;;8.82;0.40;;;5.90;99.90;;;;;;6206265;22;20014;-82
2022/12/26 15:24:55;;;;;;;2.60;0.30;;;5.90;99.90;;;;;;6257526;22;20027;-83
2022/12/26 15:27:50;;;;;;;5.85;0.30;;;5.80;99.90;;;;;;6256281;22;20050;-82
2022/12/26 15:31:07;;;;;;;4.45;0.50;;;5.80;99.90;;;;;;6231922;22;20039;-82
2022/12/26 15:33:39;;;;;;;4.32;0.40;;;5.70;99.90;;;;;;6145985;23;20005;-82
2022/12/26 15:36:11;;;;;;;2.47;0.40;;;5.70;99.90;;;;;;6121959;23;20009;-82
2022/12/26 15:39:01;;;;;;;5.03;0.25;;;5.70;99.90;;;;;;6145978;23;20060;-82
2022/12/26 15:41:46;;;;;;;3.83;0.52;;;5.70;99.90;;;;;;6122500;23;20128;-82
2022/12/26 15:44:29;;;;;;;2.65;0.20;;;5.60;99.90;;;;;;6147164;23;20033;-83